Time;durP1;ratioP1;P1;durP2;ratioP2;P2;SDS_P1;SDS_P2;PMS_P1;PMS_P2;Temp;Humidity;BMP_temperature;BMP_pressure;BME280_temperature;BME280_humidity;BME280_pressure;Samples;Min_cycle;Max_cycle;Signal;HPM_P1;HPM_P2
2023/05/08 00:02:18;;;;;;;13.27;12.07;;;;;;;13.83;100.00;101952.88;4985474;28;20031;-63
2023/05/08 00:04:43;;;;;;;12.27;11.27;;;;;;;13.84;100.00;101946.28;4987616;28;20030;-63
2023/05/08 00:07:09;;;;;;;12.13;11.02;;;;;;;13.84;100.00;101952.69;4985073;28;20033;-63
2023/05/08 00:09:35;;;;;;;12.40;11.20;;;;;;;13.86;100.00;101957.97;4987574;28;20117;-63
2023/05/08 00:12:00;;;;;;;12.18;10.98;;;;;;;13.79;100.00;101966.31;4984749;28;20486;-63
2023/05/08 00:14:25;;;;;;;11.95;10.95;;;;;;;13.81;100.00;101955.88;4986950;28;20073;-63
2023/05/08 00:16:50;;;;;;;13.57;12.32;;;;;;;13.78;100.00;101956.31;4987535;28;20374;-63
2023/05/08 00:19:16;;;;;;;13.23;11.88;;;;;;;13.73;100.00;101958.91;4977641;28;20031;-63
2023/05/08 00:21:41;;;;;;;14.25;12.93;;;;;;;13.72;100.00;101963.59;4981989;28;20034;-63
2023/05/08 00:24:07;;;;;;;14.68;13.45;;;;;;;13.74;100.00;101946.81;4987348;28;20496;-63
2023/05/08 00:26:32;;;;;;;15.30;13.93;;;;;;;13.77;100.00;101949.97;4985426;28;20045;-63
2023/05/08 00:28:57;;;;;;;15.57;14.27;;;;;;;13.76;100.00;101936.38;4987317;28;20569;-63
2023/05/08 00:31:23;;;;;;;14.40;13.15;;;;;;;13.80;100.00;101954.19;4984275;28;20026;-63
2023/05/08 00:33:48;;;;;;;14.38;13.07;;;;;;;13.77;100.00;101947.19;4986171;28;20025;-63
2023/05/08 00:36:14;;;;;;;14.00;12.80;;;;;;;13.75;100.00;101954.03;4987255;28;20362;-63
2023/05/08 00:38:40;;;;;;;13.95;12.85;;;;;;;13.74;100.00;101952.34;4986918;28;20037;-63
2023/05/08 00:41:05;;;;;;;13.55;12.45;;;;;;;13.71;100.00;101947.25;4984395;28;20312;-63
2023/05/08 00:43:31;;;;;;;14.18;13.05;;;;;;;13.67;100.00;101948.78;4986744;28;20121;-63
2023/05/08 00:45:59;;;;;;;13.85;12.65;;;;;;;13.66;100.00;101942.41;4986581;28;20034;-63
2023/05/08 00:48:28;;;;;;;14.25;12.93;;;;;;;13.66;100.00;101936.03;4985136;28;20519;-63
2023/05/08 00:50:55;;;;;;;14.70;13.40;;;;;;;13.69;100.00;101938.38;4984700;28;20540;-63
2023/05/08 00:53:22;;;;;;;15.00;13.80;;;;;;;13.67;100.00;101941.34;4985176;28;20026;-63
2023/05/08 00:55:49;;;;;;;15.60;14.30;;;;;;;13.66;100.00;101936.03;4986301;28;20038;-64
2023/05/08 00:58:15;;;;;;;14.55;13.32;;;;;;;13.65;100.00;101935.22;4985719;28;20465;-62
2023/05/08 01:00:42;;;;;;;14.60;13.30;;;;;;;13.66;100.00;101941.56;4986101;28;20022;-63
2023/05/08 01:03:08;;;;;;;14.73;13.43;;;;;;;13.67;100.00;101946.00;4985106;28;20110;-63
2023/05/08 01:05:34;;;;;;;14.68;13.40;;;;;;;13.65;100.00;101945.41;4986136;28;20101;-63
2023/05/08 01:07:59;;;;;;;14.77;13.48;;;;;;;13.66;100.00;101941.56;4983619;28;20130;-63
2023/05/08 01:10:37;;;;;;;14.77;13.48;;;;;;;13.68;100.00;101939.41;4973905;28;20026;-63
2023/05/08 01:13:21;;;;;;;14.35;13.15;;;;;;;13.69;100.00;101941.13;4983815;28;20648;-63
2023/05/08 01:15:53;;;;;;;15.55;14.20;;;;;;;13.61;100.00;101933.13;4987113;28;20184;-63
2023/05/08 01:18:24;;;;;;;13.40;12.20;;;;;;;13.59;100.00;101936.09;4985931;28;20523;-62
2023/05/08 01:21:02;;;;;;;13.98;12.68;;;;;;;13.59;100.00;101935.25;4984982;28;20481;-63
2023/05/08 01:23:51;;;;;;;14.10;12.90;;;;;;;13.61;100.00;101922.91;4972239;28;20022;-63
2023/05/08 01:26:40;;;;;;;15.13;13.60;;;;;;;13.59;100.00;101938.03;4984430;28;20495;-63
2023/05/08 01:29:15;;;;;;;16.17;14.68;;;;;;;13.60;100.00;101936.94;4971006;28;20047;-63
2023/05/08 01:31:40;;;;;;;13.98;12.68;;;;;;;13.57;100.00;101934.63;4984792;28;20130;-63
2023/05/08 01:34:12;;;;;;;12.53;11.43;;;;;;;13.53;100.00;101945.25;4985344;28;20443;-63
2023/05/08 01:36:47;;;;;;;12.88;11.77;;;;;;;13.55;100.00;101943.13;4982427;28;20122;-63
2023/05/08 01:39:28;;;;;;;11.85;10.85;;;;;;;13.53;100.00;101948.03;4981197;28;20732;-63
2023/05/08 01:42:03;;;;;;;12.02;10.82;;;;;;;13.50;100.00;101949.31;4988310;28;20026;-63
2023/05/08 01:44:35;;;;;;;12.05;10.90;;;;;;;13.46;100.00;101944.47;4988674;28;20046;-62
2023/05/08 01:47:05;;;;;;;11.52;10.52;;;;;;;13.46;100.00;101934.28;4978746;28;20030;-63
2023/05/08 01:49:44;;;;;;;13.13;11.93;;;;;;;13.46;100.00;101939.78;4987369;28;20109;-63
2023/05/08 01:52:17;;;;;;;12.55;11.45;;;;;;;13.46;100.00;101936.19;4989604;28;20065;-63
2023/05/08 01:54:56;;;;;;;12.43;11.43;;;;;;;13.49;100.00;101942.13;4989496;28;20053;-63
2023/05/08 01:57:25;;;;;;;12.98;11.77;;;;;;;13.49;100.00;101939.38;4988427;28;20026;-63
2023/05/08 01:59:53;;;;;;;14.02;12.82;;;;;;;13.50;100.00;101948.50;4986365;28;20038;-63
2023/05/08 02:02:19;;;;;;;15.88;14.27;;;;;;;13.49;100.00;101942.13;4989304;28;20030;-63
2023/05/08 02:04:46;;;;;;;14.77;13.57;;;;;;;13.49;100.00;101952.31;4989918;28;20092;-63
2023/05/08 02:07:11;;;;;;;16.52;15.13;;;;;;;13.52;100.00;101946.34;4987307;28;20092;-63
2023/05/08 02:09:39;;;;;;;16.10;14.80;;;;;;;13.51;100.00;101941.88;4988707;28;20030;-63
2023/05/08 02:12:07;;;;;;;16.73;15.32;;;;;;;13.52;100.00;101942.72;4986525;28;20058;-63
2023/05/08 02:14:35;;;;;;;16.10;14.60;;;;;;;13.49;100.00;101946.81;4989694;28;20344;-63
2023/05/08 02:17:02;;;;;;;17.42;15.93;;;;;;;13.48;100.00;101950.59;4988873;28;20034;-63
2023/05/08 02:19:28;;;;;;;18.00;16.52;;;;;;;13.44;100.00;101952.97;4988270;28;20105;-63
2023/05/08 02:21:56;;;;;;;17.63;16.20;;;;;;;13.44;100.00;101952.97;4988500;28;20038;-63
2023/05/08 02:24:22;;;;;;;20.08;18.38;;;;;;;13.41;100.00;101950.66;5004510;28;20486;-63
2023/05/08 02:26:49;;;;;;;19.55;17.85;;;;;;;13.43;100.00;101954.06;4989099;28;20034;-63
2023/05/08 02:29:16;;;;;;;22.45;20.55;;;;;;;13.44;100.00;101950.22;4988647;28;20034;-63
2023/05/08 02:31:42;;;;;;;20.67;18.77;;;;;;;13.49;100.00;101947.66;4987862;28;20038;-63
2023/05/08 02:34:09;;;;;;;24.35;22.15;;;;;;;13.48;100.00;101957.00;4988268;28;20019;-63
2023/05/08 02:36:36;;;;;;;22.98;21.08;;;;;;;13.50;100.00;101954.84;4988490;28;20040;-63
2023/05/08 02:39:02;;;;;;;22.97;20.83;;;;;;;13.53;100.00;101955.47;4987081;28;20034;-63
2023/05/08 02:41:30;;;;;;;23.60;21.38;;;;;;;13.53;100.00;101969.25;4987545;28;20056;-62
2023/05/08 02:43:56;;;;;;;23.13;21.13;;;;;;;13.57;100.00;101959.47;4986972;28;20062;-63
2023/05/08 02:46:31;;;;;;;23.25;21.02;;;;;;;13.57;100.00;101960.31;4987335;28;20085;-63
2023/05/08 02:49:07;;;;;;;23.95;21.95;;;;;;;13.55;100.00;101959.69;4988942;28;20039;-63
2023/05/08 02:51:43;;;;;;;22.83;20.80;;;;;;;13.55;100.00;101962.47;4989970;28;20038;-63
2023/05/08 02:54:50;;;;;;;21.80;19.85;;;;;;;13.59;100.00;101960.94;4988811;28;20481;-63
2023/05/08 02:57:32;;;;;;;21.00;19.23;;;;;;;13.59;100.00;101960.09;4987960;28;20046;-63
2023/05/08 03:00:07;;;;;;;20.85;18.95;;;;;;;13.58;100.00;101958.38;4985593;28;20033;-63
2023/05/08 03:02:39;;;;;;;19.65;17.88;;;;;;;13.57;100.00;101953.94;4989334;28;20023;-63
2023/05/08 03:05:29;;;;;;;19.95;18.15;;;;;;;13.58;100.00;101950.09;4987823;28;20049;-63
2023/05/08 03:07:58;;;;;;;20.00;18.20;;;;;;;13.53;100.00;101952.69;4988543;28;20034;-64
2023/05/08 03:10:30;;;;;;;19.48;17.67;;;;;;;13.52;100.00;101954.63;4988071;28;20027;-63
2023/05/08 03:12:56;;;;;;;20.15;18.35;;;;;;;13.51;100.00;101952.94;4988890;28;20034;-63
2023/05/08 03:15:30;;;;;;;19.98;18.13;;;;;;;13.50;100.00;101954.84;4988666;28;20034;-63
2023/05/08 03:18:01;;;;;;;19.63;17.92;;;;;;;13.50;100.00;101951.25;4980530;28;20073;-63
2023/05/08 03:20:32;;;;;;;19.50;17.70;;;;;;;13.46;100.00;101955.50;4987975;28;20339;-63
2023/05/08 03:22:59;;;;;;;18.55;16.95;;;;;;;13.42;100.00;101951.50;4988260;28;20038;-63
2023/05/08 03:25:26;;;;;;;17.67;16.08;;;;;;;13.38;100.00;101955.75;4988644;28;20077;-63
2023/05/08 03:27:52;;;;;;;20.48;18.58;;;;;;;13.37;100.00;101954.94;4987805;28;20034;-63
2023/05/08 03:30:18;;;;;;;20.30;18.50;;;;;;;13.36;100.00;101950.47;4987757;28;20033;-63
2023/05/08 03:32:45;;;;;;;20.58;18.67;;;;;;;13.33;100.00;101950.06;4989125;28;20037;-63
2023/05/08 03:35:12;;;;;;;19.73;17.93;;;;;;;13.32;100.00;101954.75;4987381;28;20026;-63
2023/05/08 03:37:37;;;;;;;19.77;17.98;;;;;;;13.24;100.00;101950.34;4988334;28;20376;-63
2023/05/08 03:40:03;;;;;;;18.85;17.25;;;;;;;13.21;100.00;101948.03;4977612;28;20121;-63
2023/05/08 03:42:30;;;;;;;20.75;18.83;;;;;;;13.18;100.00;101937.41;4982511;28;20029;-63
2023/05/08 03:44:56;;;;;;;18.77;17.08;;;;;;;13.14;100.00;101943.59;4988094;28;20045;-63
2023/05/08 03:47:24;;;;;;;19.15;17.45;;;;;;;13.10;100.00;101950.63;4988469;28;20121;-63
2023/05/08 03:49:50;;;;;;;19.27;17.58;;;;;;;13.06;100.00;101952.13;4988132;28;20042;-63
2023/05/08 03:52:15;;;;;;;18.73;17.05;;;;;;;13.01;100.00;101938.97;4987124;28;20050;-63
2023/05/08 03:54:41;;;;;;;18.55;16.95;;;;;;;12.97;100.00;101930.28;4988053;28;20385;-63
2023/05/08 03:57:07;;;;;;;18.65;16.98;;;;;;;12.93;100.00;101947.53;4986767;28;20068;-63
2023/05/08 04:00:03;;;;;;;19.58;17.67;;;;;;;12.97;100.00;101941.31;4988027;28;20374;-63
2023/05/08 04:02:47;;;;;;;19.50;17.70;;;;;;;12.92;100.00;101945.81;4986669;28;20121;-63
2023/05/08 04:05:23;;;;;;;19.55;17.85;;;;;;;12.91;100.00;101938.63;4985675;28;20046;-63
2023/05/08 04:08:01;;;;;;;19.17;17.58;;;;;;;12.88;100.00;101934.41;4987103;28;20053;-63
2023/05/08 04:10:38;;;;;;;19.33;17.63;;;;;;;12.89;100.00;101941.59;4986988;28;20026;-63
2023/05/08 04:13:07;;;;;;;20.67;18.67;;;;;;;12.87;100.00;101937.34;4987433;28;20026;-63
2023/05/08 04:16:05;;;;;;;21.27;19.48;;;;;;;12.90;100.00;101946.03;4986590;28;20042;-63
2023/05/08 04:18:35;;;;;;;21.45;19.55;;;;;;;12.94;100.00;101943.69;4954876;28;20120;-63
2023/05/08 04:21:02;;;;;;;22.83;20.80;;;;;;;12.98;100.00;101951.31;4987188;28;20495;-63
2023/05/08 04:23:28;;;;;;;23.52;21.33;;;;;;;13.00;100.00;101942.81;4987925;28;20124;-63
2023/05/08 04:25:55;;;;;;;24.75;22.63;;;;;;;13.04;100.00;101949.59;4986876;28;20089;-64
2023/05/08 04:28:20;;;;;;;24.42;22.25;;;;;;;13.11;100.00;101953.16;4986370;28;20038;-63
2023/05/08 04:30:46;;;;;;;26.45;24.08;;;;;;;13.13;100.00;101955.69;5003253;28;20080;-62
2023/05/08 04:33:12;;;;;;;24.92;22.73;;;;;;;13.14;100.00;101949.13;4987534;28;20026;-63
2023/05/08 04:35:38;;;;;;;24.88;22.63;;;;;;;13.16;100.00;101956.09;4987288;28;20121;-63
2023/05/08 04:38:03;;;;;;;26.38;24.00;;;;;;;13.18;100.00;101956.72;4986299;28;20533;-63
2023/05/08 04:40:28;;;;;;;26.13;23.80;;;;;;;13.16;100.00;101958.84;4986811;28;20037;-63
2023/05/08 04:42:54;;;;;;;27.38;25.02;;;;;;;13.18;100.00;101961.41;4986461;28;20049;-63
2023/05/08 04:45:19;;;;;;;26.17;23.85;;;;;;;13.20;100.00;101973.06;4987514;28;20080;-63
2023/05/08 04:47:45;;;;;;;25.02;22.90;;;;;;;13.24;100.00;101963.31;4987602;28;20018;-63
2023/05/08 04:50:10;;;;;;;25.48;23.27;;;;;;;13.27;100.00;101968.38;4986566;28;20038;-63
2023/05/08 04:52:35;;;;;;;23.58;21.55;;;;;;;13.29;100.00;101966.25;4985979;28;20030;-62
2023/05/08 04:55:01;;;;;;;22.45;20.45;;;;;;;13.36;100.00;101975.31;4985096;28;20025;-61
2023/05/08 04:57:26;;;;;;;21.90;20.02;;;;;;;13.38;100.00;101973.19;4985243;28;20117;-63
2023/05/08 04:59:51;;;;;;;22.23;20.33;;;;;;;13.40;100.00;101972.97;4985938;28;20037;-63
2023/05/08 05:02:17;;;;;;;23.65;21.35;;;;;;;13.42;100.00;101979.94;4984963;28;20027;-64
2023/05/08 05:04:42;;;;;;;23.70;21.60;;;;;;;13.46;100.00;101983.97;4986383;28;20026;-62
2023/05/08 05:07:07;;;;;;;24.58;22.35;;;;;;;13.49;100.00;101975.25;4983355;28;20026;-62
2023/05/08 05:09:36;;;;;;;26.02;23.63;;;;;;;13.54;100.00;101977.34;4985875;28;20027;-63
2023/05/08 05:12:04;;;;;;;;;;;;;;;13.66;100.00;101989.34;4987262;28;20034;-63
2023/05/08 05:14:30;;;;;;;27.95;25.35;;;;;;;13.66;100.00;101988.50;4990720;28;19913;-62
2023/05/08 05:16:55;;;;;;;29.80;27.10;;;;;;;13.68;100.00;101987.19;4991238;28;20136;-62
2023/05/08 05:19:21;;;;;;;30.35;27.45;;;;;;;13.73;100.00;101992.03;4992201;28;20413;-63
2023/05/08 05:21:46;;;;;;;32.58;29.30;;;;;;;13.75;100.00;101995.44;4991861;28;20466;-63
2023/05/08 05:24:11;;;;;;;37.92;30.40;;;;;;;13.77;100.00;102001.56;4992688;28;20393;-62
2023/05/08 05:26:37;;;;;;;37.10;30.05;;;;;;;13.80;100.00;102009.44;4990444;28;20034;-62
2023/05/08 05:29:02;;;;;;;51.67;31.80;;;;;;;13.81;100.00;102010.28;4991569;28;20029;-63
2023/05/08 05:31:28;;;;;;;47.53;30.73;;;;;;;13.81;100.00;102010.28;4990833;28;20030;-63
2023/05/08 05:33:53;;;;;;;51.33;32.60;;;;;;;13.84;100.00;102012.56;4992081;28;20022;-64
2023/05/08 05:36:19;;;;;;;39.60;30.25;;;;;;;13.87;100.00;102004.69;4991349;28;20077;-63
2023/05/08 05:38:44;;;;;;;45.03;30.63;;;;;;;13.88;100.00;102011.91;4992053;28;20026;-63
2023/05/08 05:41:10;;;;;;;41.28;30.92;;;;;;;13.90;100.00;102009.78;4989530;28;20397;-63
2023/05/08 05:43:35;;;;;;;44.00;31.27;;;;;;;13.94;100.00;102007.41;4991490;28;20169;-62
2023/05/08 05:46:08;;;;;;;37.10;31.00;;;;;;;13.99;100.00;102019.47;4988837;28;20034;-63
2023/05/08 05:48:33;;;;;;;34.45;30.02;;;;;;;14.01;100.00;102011.81;4990669;28;20393;-63
2023/05/08 05:50:59;;;;;;;36.67;31.35;;;;;;;14.02;100.00;102016.25;4990863;28;20062;-63
2023/05/08 05:53:25;;;;;;;35.78;31.30;;;;;;;14.04;100.00;102021.56;4991779;28;20117;-61
2023/05/08 05:55:50;;;;;;;35.70;31.73;;;;;;;14.07;100.00;102020.25;4990458;28;20117;-63
2023/05/08 05:58:15;;;;;;;35.20;31.60;;;;;;;14.10;100.00;102028.09;4990737;28;20105;-63
2023/05/08 06:00:41;;;;;;;35.25;31.55;;;;;;;14.13;100.00;102027.63;4989179;28;20266;-63
2023/05/08 06:03:07;;;;;;;37.25;31.23;;;;;;;14.11;100.00;102035.31;4979553;28;20065;-62
2023/05/08 06:05:32;;;;;;;34.15;30.77;;;;;;;14.13;100.00;102028.47;4989160;28;20406;-63
2023/05/08 06:07:58;;;;;;;36.15;31.77;;;;;;;14.15;100.00;102025.50;4990483;28;20069;-62
2023/05/08 06:10:23;;;;;;;34.65;31.20;;;;;;;14.16;100.00;102029.97;5006817;28;20026;-63
2023/05/08 06:12:48;;;;;;;36.20;32.63;;;;;;;14.18;100.00;102027.81;4990980;28;20481;-63
2023/05/08 06:15:14;;;;;;;34.88;31.65;;;;;;;14.20;100.00;102031.22;4989199;28;20034;-62
2023/05/08 06:17:39;;;;;;;36.67;32.97;;;;;;;14.25;100.00;102025.84;4990527;28;20035;-62
2023/05/08 06:20:06;;;;;;;35.13;31.77;;;;;;;14.31;100.00;102024.94;4992066;28;20053;-62
2023/05/08 06:22:31;;;;;;;34.72;31.02;;;;;;;14.35;100.00;102019.81;4991574;28;20077;-62
2023/05/08 06:24:57;;;;;;;35.45;32.20;;;;;;;14.37;100.00;102028.72;4987216;28;20113;-63
2023/05/08 06:27:22;;;;;;;34.42;31.20;;;;;;;14.41;100.00;102022.50;4988710;28;20023;-63
2023/05/08 06:29:51;;;;;;;35.03;31.55;;;;;;;14.43;100.00;102027.78;4986816;28;20051;-63
2023/05/08 06:32:17;;;;;;;35.00;31.38;;;;;;;14.44;100.00;102018.41;4988162;28;20142;-64
2023/05/08 06:34:42;;;;;;;34.63;31.15;;;;;;;14.45;100.00;102028.44;4989814;28;20519;-62
2023/05/08 06:37:07;;;;;;;35.53;32.15;;;;;;;14.46;100.00;102025.44;4988396;28;20030;-63
2023/05/08 06:39:33;;;;;;;34.70;31.25;;;;;;;14.51;100.00;102031.16;4988289;28;20031;-63
2023/05/08 06:41:58;;;;;;;35.75;32.42;;;;;;;14.53;100.00;102033.69;4989709;28;20030;-63
2023/05/08 06:44:23;;;;;;;35.42;32.17;;;;;;;14.53;100.00;102031.75;4990034;28;20104;-63
2023/05/08 06:46:48;;;;;;;36.17;32.83;;;;;;;14.53;100.00;102037.28;4988602;28;20042;-63
2023/05/08 06:49:14;;;;;;;35.83;32.47;;;;;;;14.57;100.00;102042.38;4988545;28;20084;-63
2023/05/08 06:51:39;;;;;;;36.00;32.80;;;;;;;14.59;100.00;102038.28;4989647;28;20034;-63
2023/05/08 06:54:07;;;;;;;35.55;32.25;;;;;;;14.63;100.00;102042.28;4988169;28;20033;-63
2023/05/08 06:56:33;;;;;;;38.22;34.83;;;;;;;14.67;100.00;102048.22;4981456;28;20363;-63
2023/05/08 06:58:58;;;;;;;36.60;33.35;;;;;;;14.65;100.00;102050.34;4973279;28;20041;-63
2023/05/08 07:01:23;;;;;;;36.80;33.53;;;;;;;14.68;100.00;102050.75;4980987;28;20062;-63
2023/05/08 07:03:48;;;;;;;37.80;34.40;;;;;;;14.70;100.00;102044.97;4981068;28;20113;-64
2023/05/08 07:06:14;;;;;;;37.35;34.15;;;;;;;14.71;100.00;102042.00;4986279;28;20081;-63
2023/05/08 07:08:39;;;;;;;38.43;35.23;;;;;;;14.77;100.00;102048.53;4982923;28;20023;-63
2023/05/08 07:11:04;;;;;;;40.42;36.92;;;;;;;14.76;100.00;102042.16;4979615;28;20301;-63
2023/05/08 07:13:30;;;;;;;38.10;34.83;;;;;;;14.79;100.00;102047.22;4985637;28;20449;-63
2023/05/08 07:15:55;;;;;;;38.88;35.60;;;;;;;14.79;100.00;102057.44;4979869;28;20030;-64
2023/05/08 07:18:21;;;;;;;38.65;35.45;;;;;;;14.78;100.00;102061.28;4987831;28;20081;-63
2023/05/08 07:20:46;;;;;;;38.22;34.97;;;;;;;14.77;100.00;102054.91;4985887;28;20027;-63
2023/05/08 07:23:11;;;;;;;38.33;35.15;;;;;;;14.74;100.00;102063.66;5003406;28;20031;-63
2023/05/08 07:25:37;;;;;;;36.50;33.38;;;;;;;14.74;100.00;102055.34;4987739;28;20054;-63
2023/05/08 07:28:02;;;;;;;36.33;33.30;;;;;;;14.74;100.00;102055.34;4989041;28;20061;-63
2023/05/08 07:30:28;;;;;;;37.28;34.08;;;;;;;14.78;100.00;102055.75;4987043;28;20022;-63
2023/05/08 07:32:53;;;;;;;36.00;32.83;;;;;;;14.75;100.00;102057.06;4982037;28;20037;-63
2023/05/08 07:35:19;;;;;;;37.22;33.90;;;;;;;14.72;100.00;102054.75;4984039;28;20630;-63
2023/05/08 07:37:44;;;;;;;36.47;33.28;;;;;;;14.73;100.00;102052.81;4982805;28;20034;-63
2023/05/08 07:40:10;;;;;;;39.33;35.83;;;;;;;14.75;100.00;102056.19;4988390;28;20547;-63
2023/05/08 07:42:42;;;;;;;38.63;35.15;;;;;;;14.73;100.00;102048.13;4988102;28;20092;-63
2023/05/08 07:45:09;;;;;;;37.28;33.95;;;;;;;14.73;100.00;102058.34;4980219;28;20141;-63
2023/05/08 07:47:34;;;;;;;36.78;33.53;;;;;;;14.78;100.00;102051.06;4984501;28;20113;-63
2023/05/08 07:50:00;;;;;;;36.03;32.85;;;;;;;14.83;100.00;102049.53;4974915;28;20110;-63
2023/05/08 07:52:25;;;;;;;36.97;33.58;;;;;;;14.89;100.00;102051.38;4987673;28;20026;-63
2023/05/08 07:54:50;;;;;;;36.85;33.60;;;;;;;14.97;100.00;102049.16;4984510;28;20473;-63
2023/05/08 07:57:16;;;;;;;37.50;34.10;;;;;;;15.00;100.00;102042.31;4981537;28;20373;-63
2023/05/08 07:59:41;;;;;;;36.38;33.17;;;;;;;15.16;100.00;102040.84;4987437;28;20030;-63
2023/05/08 08:02:06;;;;;;;36.95;33.65;;;;;;;15.27;100.00;102042.84;4987677;28;20053;-63
2023/05/08 08:04:32;;;;;;;35.47;32.38;;;;;;;15.38;100.00;102044.81;4988770;28;20030;-63
2023/05/08 08:06:57;;;;;;;36.30;33.05;;;;;;;15.49;100.00;102052.31;4983354;28;20109;-63
2023/05/08 08:09:22;;;;;;;35.80;32.75;;;;;;;15.66;100.00;102052.56;4982056;28;20037;-63
2023/05/08 08:11:48;;;;;;;35.00;32.00;;;;;;;15.79;100.00;102046.81;4986278;28;20453;-63
2023/05/08 08:14:13;;;;;;;35.72;32.72;;;;;;;15.94;100.00;102048.28;4986993;28;20414;-63
2023/05/08 08:16:38;;;;;;;34.03;31.23;;;;;;;16.03;100.00;102044.94;4977766;28;20027;-63
2023/05/08 08:19:03;;;;;;;34.97;31.97;;;;;;;16.16;100.00;102052.19;4986497;28;20022;-63
2023/05/08 08:21:29;;;;;;;33.47;30.67;;;;;;;16.42;100.00;102044.50;4986077;28;20270;-62
2023/05/08 08:23:55;;;;;;;32.03;29.42;;;;;;;16.60;100.00;102050.78;4984937;28;20630;-63
2023/05/08 08:26:20;;;;;;;32.17;29.58;;;;;;;16.89;100.00;102048.13;4986374;28;20029;-63
2023/05/08 08:28:46;;;;;;;31.63;28.85;;;;;;;17.22;100.00;102043.81;4984552;28;20038;-62
2023/05/08 08:31:11;;;;;;;29.65;27.15;;;;;;;17.48;100.00;102042.41;4986576;28;20369;-63
2023/05/08 08:33:36;;;;;;;29.70;27.25;;;;;;;17.70;100.00;102045.34;4984741;28;20520;-63
2023/05/08 08:36:02;;;;;;;30.48;27.63;;;;;;;17.94;100.00;102040.50;4986130;28;20023;-63
2023/05/08 08:38:27;;;;;;;30.08;27.67;;;;;;;17.99;100.00;102037.81;4985221;28;20108;-63
2023/05/08 08:40:54;;;;;;;29.15;26.73;;;;;;;18.04;100.00;102035.97;4986032;28;20137;-64
2023/05/08 08:43:19;;;;;;;29.50;27.05;;;;;;;18.18;100.00;102039.28;4997468;28;20113;-63
2023/05/08 08:45:44;;;;;;;28.52;26.23;;;;;;;18.51;100.00;102032.03;4986369;28;20030;-63
2023/05/08 08:48:11;;;;;;;27.98;25.67;;;;;;;18.93;100.00;102038.78;4984824;28;20476;-64
2023/05/08 08:50:41;;;;;;;27.88;25.58;;;;;;;19.29;100.00;102041.19;4982889;28;20026;-63
2023/05/08 08:53:14;;;;;;;27.77;25.58;;;;;;;19.50;100.00;102031.94;4982371;28;20033;-60
2023/05/08 08:55:44;;;;;;;26.20;24.08;;;;;;;19.70;97.12;102037.78;4976981;28;20034;-60
2023/05/08 08:58:28;;;;;;;25.98;23.95;;;;;;;19.89;98.67;102040.19;4977456;28;20109;-60
2023/05/08 09:00:55;;;;;;;24.85;22.85;;;;;;;20.29;97.32;102036.09;4987706;28;20076;-60
2023/05/08 09:03:20;;;;;;;24.13;22.23;;;;;;;20.23;92.35;102032.41;4977646;28;20468;-61
2023/05/08 09:05:48;;;;;;;25.08;23.08;;;;;;;20.33;95.10;102034.44;4977397;28;20105;-60
2023/05/08 09:08:13;;;;;;;23.67;21.77;;;;;;;20.35;96.20;102040.59;4980717;28;20492;-60
2023/05/08 09:10:38;;;;;;;23.33;21.52;;;;;;;20.17;95.87;102042.69;4982819;28;20035;-60
2023/05/08 09:13:04;;;;;;;21.60;19.80;;;;;;;19.82;94.64;102045.13;4973079;28;20030;-60
2023/05/08 09:15:33;;;;;;;23.00;21.05;;;;;;;19.48;97.19;102050.03;4986048;28;20026;-60
2023/05/08 09:18:02;;;;;;;23.30;21.35;;;;;;;19.24;99.64;102049.47;4985657;28;20351;-59
2023/05/08 09:20:28;;;;;;;23.00;21.00;;;;;;;19.06;96.77;102051.50;4986506;28;20482;-60
2023/05/08 09:22:53;;;;;;;22.90;21.02;;;;;;;19.04;99.73;102050.03;4981361;28;20084;-61
2023/05/08 09:25:18;;;;;;;23.63;21.73;;;;;;;18.94;98.63;102047.97;4984271;28;20038;-61
2023/05/08 09:27:44;;;;;;;24.05;21.95;;;;;;;18.91;99.11;102045.72;4986693;28;20030;-60
2023/05/08 09:30:11;;;;;;;23.27;21.23;;;;;;;18.91;100.00;102043.78;4987564;28;20500;-60
2023/05/08 09:32:41;;;;;;;23.25;21.33;;;;;;;18.93;98.74;102049.06;4985952;28;20033;-60
2023/05/08 09:35:08;;;;;;;25.17;23.02;;;;;;;18.96;100.00;102044.91;4985898;28;20436;-60
2023/05/08 09:37:38;;;;;;;26.43;24.23;;;;;;;18.97;100.00;102043.84;4986432;28;20030;-60
2023/05/08 09:40:18;;;;;;;27.08;24.85;;;;;;;18.85;100.00;102046.72;4985066;28;20034;-60
2023/05/08 09:42:44;;;;;;;26.35;24.25;;;;;;;18.67;100.00;102042.28;4982392;28;20077;-60
2023/05/08 09:45:10;;;;;;;28.35;26.05;;;;;;;18.50;100.00;102050.66;4981038;28;20134;-60
2023/05/08 09:47:38;;;;;;;25.27;23.27;;;;;;;18.41;100.00;102053.00;4986456;28;20113;-60
2023/05/08 09:50:04;;;;;;;26.80;24.63;;;;;;;18.32;100.00;102042.56;4984800;28;20054;-60
2023/05/08 09:52:31;;;;;;;27.02;24.83;;;;;;;18.23;100.00;102052.41;4983465;28;20076;-60
2023/05/08 09:55:04;;;;;;;28.45;26.20;;;;;;;18.13;100.00;102045.59;4986397;28;20126;-60
2023/05/08 09:57:31;;;;;;;28.30;26.05;;;;;;;18.17;100.00;102047.88;4984781;28;20038;-60
2023/05/08 10:00:06;;;;;;;28.65;26.33;;;;;;;18.19;100.00;102052.06;4977890;28;20041;-61
2023/05/08 10:02:32;;;;;;;28.98;26.58;;;;;;;18.12;100.00;102043.91;4986891;28;20029;-60
2023/05/08 10:04:57;;;;;;;29.20;26.90;;;;;;;18.22;100.00;102053.53;4984794;28;20027;-60
2023/05/08 10:07:31;;;;;;;28.55;26.25;;;;;;;18.37;100.00;102053.78;4986924;28;20029;-61
2023/05/08 10:09:59;;;;;;;27.77;25.60;;;;;;;18.51;100.00;102048.72;4987577;28;20512;-60
2023/05/08 10:12:25;;;;;;;28.08;25.70;;;;;;;18.55;100.00;102049.88;4987407;28;20031;-60
2023/05/08 10:14:51;;;;;;;27.45;25.25;;;;;;;18.58;100.00;102047.41;4991324;28;20022;-61
2023/05/08 10:17:24;;;;;;;27.40;25.13;;;;;;;18.73;100.00;102052.41;4988914;28;20045;-61
2023/05/08 10:19:56;;;;;;;25.95;23.85;;;;;;;18.78;100.00;102051.63;4991080;28;20509;-60
2023/05/08 10:22:24;;;;;;;27.40;25.20;;;;;;;18.75;100.00;102054.94;4990251;28;20053;-61
2023/05/08 10:24:54;;;;;;;27.00;24.83;;;;;;;18.69;100.00;102054.00;4989683;28;20089;-61
2023/05/08 10:27:29;;;;;;;26.67;24.48;;;;;;;18.61;100.00;102058.06;4989346;28;20485;-61
2023/05/08 10:29:59;;;;;;;27.48;25.27;;;;;;;18.59;100.00;102053.81;4990399;28;20488;-62
2023/05/08 10:32:27;;;;;;;27.77;25.52;;;;;;;18.46;100.00;102056.97;4989640;28;20042;-61
2023/05/08 10:34:57;;;;;;;29.23;26.83;;;;;;;18.25;100.00;102053.88;4990607;28;20218;-61
2023/05/08 10:37:22;;;;;;;30.00;27.52;;;;;;;18.12;100.00;102056.97;4989625;28;20022;-61
2023/05/08 10:39:49;;;;;;;31.80;29.30;;;;;;;17.96;100.00;102066.97;4986346;28;20034;-62
2023/05/08 10:42:14;;;;;;;33.05;30.38;;;;;;;17.92;100.00;102060.22;4990061;28;20589;-61
2023/05/08 10:44:39;;;;;;;31.80;29.27;;;;;;;17.92;100.00;102063.00;4989419;28;20042;-61
2023/05/08 10:47:11;;;;;;;32.88;30.08;;;;;;;18.04;100.00;102063.78;4988312;28;20046;-61
2023/05/08 10:49:51;;;;;;;33.58;30.77;;;;;;;18.26;100.00;102060.28;4989558;28;20124;-61
2023/05/08 10:52:28;;;;;;;32.53;29.63;;;;;;;18.39;100.00;102052.41;4988315;28;20031;-62
2023/05/08 10:54:57;;;;;;;32.85;30.08;;;;;;;18.48;100.00;102054.78;4988624;28;20033;-62
2023/05/08 10:57:23;;;;;;;31.45;28.90;;;;;;;18.57;100.00;102045.75;4988946;28;20061;-62
2023/05/08 10:59:48;;;;;;;30.50;28.00;;;;;;;18.71;100.00;102040.69;4987829;28;20026;-62
2023/05/08 11:02:15;;;;;;;32.70;29.98;;;;;;;18.95;100.00;102046.03;4988407;28;20026;-62
2023/05/08 11:04:40;;;;;;;32.78;30.08;;;;;;;19.12;100.00;102036.53;4988521;28;20034;-62
2023/05/08 11:07:06;;;;;;;29.55;27.10;;;;;;;19.24;100.00;102035.53;4988139;28;20049;-62